createdAt,value
2023-04-02T00:02:59.576Z,2.80
2023-04-02T00:08:10.287Z,3.20
2023-04-02T00:13:12.656Z,4.50
2023-04-02T00:18:22.298Z,5.03
2023-04-02T00:23:25.005Z,4.40
2023-04-02T00:28:27.510Z,3.42
2023-04-02T00:33:32.224Z,3.40
2023-04-02T00:38:36.092Z,3.72
2023-04-02T00:43:39.938Z,3.05
2023-04-02T00:48:51.652Z,4.20
2023-04-02T00:53:57.880Z,8.07
2023-04-02T00:59:01.185Z,5.55
2023-04-02T01:04:06.010Z,3.28
2023-04-02T01:09:14.653Z,1.83
2023-04-02T01:14:36.958Z,4.37
2023-04-02T01:20:07.798Z,5.13
2023-04-02T01:25:18.704Z,3.40
2023-04-02T01:30:22.294Z,2.70
2023-04-02T01:35:28.261Z,2.22
2023-04-02T01:40:33.948Z,2.67
2023-04-02T01:45:37.030Z,2.53
2023-04-02T01:50:41.975Z,3.28
2023-04-02T01:55:59.861Z,4.00
2023-04-02T02:01:24.811Z,5.20
2023-04-02T02:06:28.835Z,7.30
2023-04-02T02:11:33.889Z,6.70
2023-04-02T02:16:42.163Z,8.50
2023-04-02T02:21:52.447Z,3.78
2023-04-02T02:27:05.254Z,2.65
2023-04-02T02:32:12.129Z,2.57
2023-04-02T02:37:24.080Z,2.70
2023-04-02T02:42:39.160Z,3.38
2023-04-02T02:47:44.270Z,3.20
2023-04-02T02:52:53.620Z,3.35
2023-04-02T02:58:27.806Z,4.20
2023-04-02T03:03:41.189Z,3.20
2023-04-02T03:08:54.775Z,3.97
2023-04-02T03:14:36.951Z,2.72
2023-04-02T03:19:53.149Z,3.65
2023-04-02T03:25:00.967Z,3.43
2023-04-02T03:30:23.634Z,3.53
2023-04-02T03:35:53.929Z,3.60
2023-04-02T03:41:47.078Z,4.00
2023-04-02T03:47:01.843Z,4.47
2023-04-02T03:52:12.313Z,4.17
2023-04-02T03:57:27.415Z,3.70
2023-04-02T04:02:53.447Z,4.05
2023-04-02T04:08:03.803Z,4.30
2023-04-02T04:13:12.649Z,3.72
2023-04-02T04:18:40.266Z,4.60
2023-04-02T04:23:51.878Z,4.50
2023-04-02T04:29:14.213Z,3.92
2023-04-02T04:34:42.537Z,4.28
2023-04-02T04:40:03.309Z,4.53
2023-04-02T04:45:30.286Z,5.33
2023-04-02T04:50:39.093Z,5.13
2023-04-02T04:55:49.209Z,5.15
2023-04-02T05:01:00.504Z,4.20
2023-04-02T05:06:13.209Z,4.90
2023-04-02T05:11:32.422Z,4.00
2023-04-02T05:16:52.075Z,4.15
2023-04-02T05:22:19.504Z,4.47
2023-04-02T05:27:47.347Z,5.90
2023-04-02T05:33:18.162Z,4.55
2023-04-02T05:38:28.851Z,5.73
2023-04-02T05:43:35.119Z,6.55
2023-04-02T05:48:43.646Z,6.82
2023-04-02T05:53:59.851Z,6.10
2023-04-02T05:59:16.440Z,6.72
2023-04-02T06:04:34.609Z,6.37
2023-04-02T06:09:44.851Z,5.40
2023-04-02T06:14:48.216Z,6.13
2023-04-02T06:19:56.489Z,5.20
2023-04-02T06:25:06.402Z,6.22
2023-04-02T06:30:26.512Z,10.70
2023-04-02T06:35:29.603Z,8.07
2023-04-02T06:40:52.808Z,7.53
2023-04-02T06:46:51.803Z,2.93
2023-04-02T06:51:56.816Z,1.60
2023-04-02T06:57:00.884Z,1.70
2023-04-02T07:02:40.140Z,1.90
2023-04-02T07:07:46.290Z,2.40
2023-04-02T07:12:49.938Z,1.30
2023-04-02T07:17:53.581Z,1.20
2023-04-02T07:22:57.333Z,1.40
2023-04-02T07:27:59.955Z,1.20
2023-04-02T07:33:02.524Z,1.50
2023-04-02T07:38:04.995Z,1.17
2023-04-02T07:43:07.817Z,1.17
2023-04-02T07:48:14.340Z,1.27
2023-04-02T07:53:32.517Z,1.00
2023-04-02T07:58:34.990Z,1.00
2023-04-02T08:03:37.654Z,1.00
2023-04-02T08:08:40.700Z,1.30
2023-04-02T08:13:43.563Z,1.10
2023-04-02T08:18:47.947Z,1.23
2023-04-02T08:23:50.762Z,1.60
2023-04-02T08:28:53.315Z,1.95
2023-04-02T08:33:57.090Z,1.53
2023-04-02T08:38:59.733Z,1.30
2023-04-02T08:44:32.620Z,1.50
2023-04-02T08:50:16.624Z,0.93
2023-04-02T08:55:26.270Z,1.20
2023-04-02T09:00:49.538Z,1.23
2023-04-02T09:05:52.961Z,1.00
2023-04-02T09:11:08.828Z,0.80
2023-04-02T09:16:15.025Z,1.00
2023-04-02T09:21:32.543Z,0.90
2023-04-02T09:26:35.340Z,0.90
2023-04-02T09:31:45.402Z,0.98
2023-04-02T09:36:48.193Z,0.98
2023-04-02T09:42:02.814Z,1.20
2023-04-02T09:47:25.380Z,1.00
2023-04-02T09:52:30.095Z,1.07
2023-04-02T09:57:33.665Z,1.13
2023-04-02T10:02:37.101Z,1.27
2023-04-02T10:07:46.170Z,1.20
2023-04-02T10:13:00.425Z,1.40
2023-04-02T10:18:35.302Z,1.25
2023-04-02T10:23:37.769Z,0.90
2023-04-02T10:29:28.095Z,1.67
2023-04-02T10:34:54.541Z,1.50
2023-04-02T10:40:34.296Z,1.52
2023-04-02T10:46:02.555Z,1.43
2023-04-02T10:51:21.950Z,1.55
2023-04-02T10:56:26.574Z,1.42
2023-04-02T11:01:31.296Z,1.70
2023-04-02T11:06:43.563Z,1.35
2023-04-02T11:11:51.647Z,1.45
2023-04-02T11:16:58.813Z,1.70
2023-04-02T11:22:14.160Z,1.60
2023-04-02T11:27:33.886Z,1.70
2023-04-02T11:32:45.467Z,1.80
2023-04-02T11:43:32.926Z,1.63
2023-04-02T11:48:36.804Z,2.08
2023-04-02T11:53:43.229Z,1.83
2023-04-02T11:59:00.648Z,2.00
2023-04-02T12:04:24.038Z,1.45
2023-04-02T12:09:28.248Z,1.70
2023-04-02T12:14:38.656Z,1.83
2023-04-02T12:19:41.581Z,1.67
2023-04-02T12:24:48.595Z,1.65
2023-04-02T12:29:52.536Z,1.90
2023-04-02T12:34:57.880Z,2.03
2023-04-02T12:40:07.498Z,1.70
2023-04-02T12:45:29.819Z,1.70
2023-04-02T12:50:34.228Z,1.50
2023-04-02T12:55:37.201Z,1.67
2023-04-02T13:00:40.191Z,1.50
2023-04-02T13:05:51.171Z,2.13
2023-04-02T13:11:02.170Z,2.13
2023-04-02T13:16:16.143Z,1.50
2023-04-02T13:21:21.502Z,1.90
2023-04-02T13:26:27.385Z,1.70
2023-04-02T13:31:31.728Z,1.65
2023-04-02T13:36:34.424Z,1.80
2023-04-02T13:41:48.958Z,2.20
2023-04-02T13:46:52.788Z,1.92
2023-04-02T13:52:00.576Z,2.00
2023-04-02T13:57:03.559Z,2.27
2023-04-02T14:02:17.414Z,2.17
2023-04-02T14:08:04.387Z,1.35
2023-04-02T14:13:33.854Z,1.93
2023-04-02T14:18:55.105Z,2.05
2023-04-02T14:24:09.768Z,2.70
2023-04-02T14:29:16.687Z,1.90
2023-04-02T14:34:58.407Z,2.30
2023-04-02T14:40:23.920Z,2.15
2023-04-02T14:45:58.188Z,2.27
2023-04-02T14:51:17.822Z,3.27
2023-04-02T14:56:22.226Z,4.20
2023-04-02T15:01:34.552Z,3.58
2023-04-02T15:06:52.801Z,3.20
2023-04-02T15:12:03.897Z,2.30
2023-04-02T15:22:43.933Z,2.50
2023-04-02T15:27:52.874Z,1.90
2023-04-02T15:33:16.831Z,2.63
2023-04-02T15:38:42.923Z,1.63
2023-04-02T15:43:57.811Z,2.25
2023-04-02T15:49:09.416Z,2.30
2023-04-02T15:54:27.956Z,1.90
2023-04-02T15:59:54.640Z,2.22
2023-04-02T16:05:18.973Z,2.43
2023-04-02T16:10:41.850Z,2.28
2023-04-02T16:15:56.302Z,2.30
2023-04-02T16:21:03.203Z,2.60
2023-04-02T16:26:39.626Z,2.45
2023-04-02T16:31:55.622Z,2.40
2023-04-02T16:37:11.046Z,2.40
2023-04-02T16:42:43.562Z,2.20
2023-04-02T16:48:00.480Z,2.60
2023-04-02T16:53:18.543Z,2.90
2023-04-02T16:58:49.308Z,2.57
2023-04-02T17:04:15.027Z,2.45
2023-04-02T17:09:39.189Z,2.25
2023-04-02T17:14:57.868Z,2.40
2023-04-02T17:20:02.103Z,2.28
2023-04-02T17:25:07.886Z,2.63
2023-04-02T17:30:39.458Z,3.15
2023-04-02T17:35:51.189Z,2.70
2023-04-02T17:41:05.981Z,2.50
2023-04-02T17:46:17.929Z,1.98
2023-04-02T17:51:25.789Z,2.43
2023-04-02T17:56:39.351Z,2.05
2023-04-02T18:01:55.466Z,2.40
2023-04-02T18:07:39.688Z,2.07
2023-04-02T18:12:58.382Z,2.15
2023-04-02T18:18:19.291Z,2.70
2023-04-02T18:23:56.761Z,2.60
2023-04-02T18:29:21.026Z,3.80
2023-04-02T18:34:40.415Z,4.27
2023-04-02T18:40:03.771Z,4.28
2023-04-02T18:45:14.860Z,6.30
2023-04-02T18:50:29.677Z,5.32
2023-04-02T18:55:32.633Z,5.82
2023-04-02T19:00:39.387Z,10.07
2023-04-02T19:05:49.802Z,9.13
2023-04-02T19:10:58.183Z,6.57
2023-04-02T19:16:31.537Z,5.05
2023-04-02T19:21:40.263Z,3.47
2023-04-02T19:26:55.482Z,3.07
2023-04-02T19:32:07.087Z,3.55
2023-04-02T19:37:36.890Z,4.50
2023-04-02T19:42:51.815Z,3.05
2023-04-02T19:47:55.717Z,3.80
2023-04-02T19:52:58.726Z,3.77
2023-04-02T19:58:17.343Z,3.00
2023-04-02T20:03:22.530Z,3.33
2023-04-02T20:08:25.159Z,4.38
2023-04-02T20:13:28.076Z,3.17
2023-04-02T20:18:32.744Z,2.63
2023-04-02T20:23:36.555Z,2.33
2023-04-02T20:28:39.497Z,2.20
2023-04-02T20:33:42.783Z,1.90
2023-04-02T20:38:45.966Z,1.58
2023-04-02T20:43:50.131Z,2.50
2023-04-02T20:48:53.021Z,2.38
2023-04-02T20:53:55.878Z,2.80
2023-04-02T20:58:58.430Z,2.10
2023-04-02T21:04:04.212Z,2.50
2023-04-02T21:09:09.548Z,2.63
2023-04-02T21:14:12.499Z,2.58
2023-04-02T21:19:15.066Z,2.50
2023-04-02T21:24:17.537Z,2.72
2023-04-02T21:29:20.392Z,2.10
2023-04-02T21:34:23.016Z,2.60
2023-04-02T21:39:26.110Z,2.90
2023-04-02T21:44:28.779Z,2.90
2023-04-02T21:49:34.414Z,2.65
2023-04-02T21:54:36.831Z,2.60
2023-04-02T21:59:39.215Z,3.30
2023-04-02T22:04:42.209Z,2.40
2023-04-02T22:09:44.733Z,2.57
2023-04-02T22:14:47.724Z,2.88
2023-04-02T22:19:50.517Z,3.15
2023-04-02T22:24:52.946Z,3.30
2023-04-02T22:29:55.598Z,3.67
2023-04-02T22:35:00.461Z,4.10
2023-04-02T22:40:03.107Z,3.95
2023-04-02T22:45:06.750Z,4.55
2023-04-02T22:50:09.692Z,4.50
2023-04-02T22:55:18.245Z,5.10
2023-04-02T23:00:21.201Z,5.80
2023-04-02T23:05:23.834Z,6.47
2023-04-02T23:10:28.841Z,6.80
2023-04-02T23:15:33.094Z,7.27
2023-04-02T23:20:35.835Z,7.43
2023-04-02T23:25:38.634Z,6.30
2023-04-02T23:30:44.702Z,5.97
2023-04-02T23:35:47.419Z,7.00
2023-04-02T23:40:49.877Z,8.70
2023-04-02T23:45:52.451Z,9.23
2023-04-02T23:50:54.979Z,11.20
2023-04-02T23:55:57.900Z,13.88
